Time;durP1;ratioP1;P1;durP2;ratioP2;P2;SDS_P1;SDS_P2;PMS_P1;PMS_P2;Temp;Humidity;BMP_temperature;BMP_pressure;BME280_temperature;BME280_humidity;BME280_pressure;Samples;Min_cycle;Max_cycle;Signal;HPM_P1;HPM_P2
2023/12/06 00:01:48;;;;;;;1999.90;999.90;;;;;;;0.32;100.00;94083.50;5008396;28;20255;-51
2023/12/06 00:04:14;;;;;;;1999.90;999.90;;;;;;;0.35;100.00;94072.03;5008556;28;20213;-52
2023/12/06 00:06:39;;;;;;;1999.90;999.90;;;;;;;0.41;100.00;94073.22;5008566;28;20209;-46
2023/12/06 00:09:05;;;;;;;1999.90;999.90;;;;;;;0.40;100.00;94071.66;5008746;28;20209;-54
2023/12/06 00:11:30;;;;;;;1999.90;999.90;;;;;;;0.42;100.00;94069.41;5008929;28;20183;-52
2023/12/06 00:13:56;;;;;;;1999.90;999.90;;;;;;;0.46;100.00;94064.81;5008388;28;20197;-52
2023/12/06 00:16:21;;;;;;;1999.90;999.90;;;;;;;0.47;100.00;94061.00;5008807;28;20192;-50
2023/12/06 00:18:48;;;;;;;1999.90;999.90;;;;;;;0.51;100.00;94055.66;5008309;28;20427;-48
2023/12/06 00:21:13;;;;;;;1999.90;999.90;;;;;;;0.50;100.00;94054.88;5008268;28;20195;-47
2023/12/06 00:23:39;;;;;;;1999.90;999.90;;;;;;;0.63;100.00;94058.81;5008590;28;20396;-50
2023/12/06 00:26:05;;;;;;;1999.90;999.90;;;;;;;0.60;100.00;94064.16;5008153;28;20211;-49
2023/12/06 00:28:30;;;;;;;1999.90;999.90;;;;;;;0.66;100.00;94058.09;5008268;28;20203;-49
2023/12/06 00:30:55;;;;;;;1999.90;999.90;;;;;;;0.73;100.00;94057.34;5008360;28;20192;-48
2023/12/06 00:33:21;;;;;;;1999.90;999.90;;;;;;;0.76;100.00;94052.00;5008356;28;20201;-49
2023/12/06 00:35:47;;;;;;;1999.90;999.90;;;;;;;0.78;100.00;94059.69;5008138;28;20199;-53
2023/12/06 00:38:13;;;;;;;1999.90;999.90;;;;;;;0.86;100.00;94067.41;5008795;28;20178;-51
2023/12/06 00:40:39;;;;;;;1999.90;999.90;;;;;;;0.88;100.00;94067.81;5008383;28;20281;-49
2023/12/06 00:43:04;;;;;;;1999.90;999.90;;;;;;;0.92;100.00;94062.47;5008517;28;20200;-51
2023/12/06 00:45:29;;;;;;;1999.90;999.90;;;;;;;0.97;100.00;94068.25;5007625;28;20202;-50
2023/12/06 00:47:55;;;;;;;1999.90;999.90;;;;;;;1.08;100.00;94069.09;5008152;28;20189;-49
2023/12/06 00:50:20;;;;;;;1999.90;999.90;;;;;;;1.07;100.00;94067.56;5008301;28;20218;-49
2023/12/06 00:52:46;;;;;;;1999.90;999.90;;;;;;;1.10;100.00;94060.66;5008028;28;20192;-50
2023/12/06 00:55:11;;;;;;;1999.90;999.90;;;;;;;1.13;100.00;94059.91;5008142;28;20198;-47
2023/12/06 00:57:36;;;;;;;1999.90;999.90;;;;;;;1.23;100.00;94059.94;5008186;28;20193;-50
2023/12/06 01:00:02;;;;;;;1999.90;999.90;;;;;;;1.25;100.00;94046.91;5007571;28;20262;-54
2023/12/06 01:02:27;;;;;;;1999.90;999.90;;;;;;;1.29;100.00;94063.81;5008317;28;20245;-50
2023/12/06 01:04:53;;;;;;;1999.90;999.90;;;;;;;1.33;100.00;94059.22;5007636;28;20211;-50
2023/12/06 01:07:18;;;;;;;1999.90;999.90;;;;;;;1.40;100.00;94061.97;5007722;28;20209;-50
2023/12/06 01:09:45;;;;;;;1999.90;999.90;;;;;;;1.44;100.00;94060.06;5007546;28;20250;-50
2023/12/06 01:12:10;;;;;;;1999.90;999.90;;;;;;;1.47;100.00;94058.53;5007777;28;20278;-47
2023/12/06 01:14:36;;;;;;;1999.90;999.90;;;;;;;1.49;100.00;94057.00;5008059;28;20187;-49
2023/12/06 01:17:01;;;;;;;1999.90;999.90;;;;;;;1.51;100.00;94057.41;5011977;28;20199;-49
2023/12/06 01:19:27;;;;;;;1999.90;999.90;;;;;;;1.54;100.00;94051.25;5013897;28;20202;-47
2023/12/06 01:21:52;;;;;;;1999.90;999.90;;;;;;;1.53;100.00;94060.47;5014416;28;20201;-47
2023/12/06 01:24:17;;;;;;;1999.90;999.90;;;;;;;1.54;100.00;94059.34;5013840;28;20245;-50
2023/12/06 01:26:43;;;;;;;1999.90;999.90;;;;;;;1.53;100.00;94063.16;5014506;28;20198;-52
2023/12/06 01:29:09;;;;;;;1999.90;999.90;;;;;;;1.58;100.00;94060.13;5014169;28;20228;-50
2023/12/06 01:31:34;;;;;;;1999.90;999.90;;;;;;;1.60;100.00;94068.56;5013922;28;20198;-48
2023/12/06 01:34:00;;;;;;;1999.90;999.90;;;;;;;1.64;100.00;94063.97;5014478;28;20186;-53
2023/12/06 01:36:26;;;;;;;1999.90;999.90;;;;;;;1.66;100.00;94067.06;5014082;28;20206;-49
2023/12/06 01:38:51;;;;;;;1999.90;999.90;;;;;;;1.72;100.00;94070.94;5013978;28;20183;-50
2023/12/06 01:41:16;;;;;;;1999.90;999.90;;;;;;;1.76;100.00;94065.53;5013846;28;20198;-50
2023/12/06 01:43:43;;;;;;;1999.90;999.90;;;;;;;1.79;100.00;94065.53;5014536;28;20215;-49
2023/12/06 01:46:09;;;;;;;1999.90;999.90;;;;;;;1.81;100.00;94065.16;5014037;28;20195;-55
2023/12/06 01:48:36;;;;;;;1999.90;999.90;;;;;;;1.83;100.00;94069.03;5014124;28;20203;-50
2023/12/06 01:51:03;;;;;;;1999.90;999.90;;;;;;;1.85;100.00;94063.25;5013411;28;20190;-52
2023/12/06 01:53:28;;;;;;;1999.90;999.90;;;;;;;1.91;100.00;94062.53;5013833;28;20225;-51
2023/12/06 01:55:54;;;;;;;1999.90;999.90;;;;;;;1.90;100.00;94073.66;5013780;28;20187;-49
2023/12/06 01:58:20;;;;;;;1999.90;999.90;;;;;;;1.92;100.00;94074.81;5013639;28;20197;-52
2023/12/06 02:00:46;;;;;;;1999.90;999.90;;;;;;;1.93;100.00;94070.97;5013809;28;20265;-51
2023/12/06 02:03:13;;;;;;;1999.90;999.90;;;;;;;1.87;100.00;94077.09;5013559;28;20209;-52
2023/12/06 02:05:38;;;;;;;1999.90;999.90;;;;;;;1.92;100.00;94072.13;5013953;28;20198;-55
2023/12/06 02:08:04;;;;;;;1999.90;999.90;;;;;;;1.89;100.00;94070.19;5014097;28;20252;-53
2023/12/06 02:10:29;;;;;;;1999.90;999.90;;;;;;;1.96;100.00;94064.81;5014086;28;20186;-53
2023/12/06 02:12:55;;;;;;;1999.90;999.90;;;;;;;1.97;100.00;94069.06;5014136;28;20201;-51
2023/12/06 02:15:21;;;;;;;1999.90;999.90;;;;;;;1.98;100.00;94078.69;5013778;28;20187;-47
2023/12/06 02:17:48;;;;;;;1999.90;999.90;;;;;;;1.99;100.00;94069.44;5013941;28;20278;-53
2023/12/06 02:20:14;;;;;;;1999.90;999.90;;;;;;;1.98;100.00;94062.53;5013694;28;20218;-52
2023/12/06 02:22:40;;;;;;;1999.90;999.90;;;;;;;2.01;100.00;94075.22;5013387;28;20198;-49
2023/12/06 02:25:11;;;;;;;1999.90;999.90;;;;;;;2.06;100.00;94069.47;5013497;28;20236;-54
2023/12/06 02:27:40;;;;;;;1999.90;999.90;;;;;;;2.04;100.00;94071.75;5012705;28;20364;-50
2023/12/06 02:30:06;;;;;;;1999.90;999.90;;;;;;;2.00;100.00;94065.59;5010501;28;20254;-51
2023/12/06 02:32:31;;;;;;;1999.90;999.90;;;;;;;1.99;100.00;94061.38;5010531;28;20518;-50
2023/12/06 02:35:00;;;;;;;1999.90;999.90;;;;;;;2.02;100.00;94057.16;5010498;28;20207;-52
2023/12/06 02:37:27;;;;;;;1999.90;999.90;;;;;;;2.04;100.00;94060.25;5010106;28;20379;-48
2023/12/06 02:39:54;;;;;;;1999.90;999.90;;;;;;;2.03;100.00;94058.69;5010672;28;20167;-49
2023/12/06 02:42:19;;;;;;;1999.90;999.90;;;;;;;2.05;100.00;94057.16;5010647;28;20422;-53
2023/12/06 02:44:45;;;;;;;1999.90;999.90;;;;;;;2.11;100.00;94061.00;5010462;28;20219;-50
2023/12/06 02:47:10;;;;;;;1999.90;999.90;;;;;;;2.12;100.00;94051.03;5010110;28;20222;-48
2023/12/06 02:49:36;;;;;;;1999.90;999.90;;;;;;;2.11;100.00;94049.50;5009976;28;20199;-50
2023/12/06 02:52:02;;;;;;;1999.90;999.90;;;;;;;2.13;100.00;94057.94;5009914;28;20258;-51
2023/12/06 02:54:27;;;;;;;1999.90;999.90;;;;;;;2.18;100.00;94044.88;5009913;28;20206;-51
2023/12/06 02:56:52;;;;;;;1999.90;999.90;;;;;;;2.14;100.00;94060.25;5009844;28;20202;-51
2023/12/06 02:59:18;;;;;;;1999.90;999.90;;;;;;;2.16;100.00;94051.78;5009745;28;20191;-49
2023/12/06 03:01:47;;;;;;;1999.90;999.90;;;;;;;2.15;100.00;94056.41;5009761;28;20306;-52
2023/12/06 03:04:13;;;;;;;1999.90;999.90;;;;;;;2.10;100.00;94056.78;5009828;28;20318;-49
2023/12/06 03:06:38;;;;;;;1999.90;999.90;;;;;;;2.11;100.00;94061.00;5009500;28;20206;-49
2023/12/06 03:09:05;;;;;;;1999.90;999.90;;;;;;;2.08;100.00;94061.78;5009607;28;20182;-48
2023/12/06 03:11:30;;;;;;;1999.90;999.90;;;;;;;2.10;100.00;94067.56;5010189;28;20195;-52
2023/12/06 03:13:55;;;;;;;1999.90;999.90;;;;;;;2.10;100.00;94064.88;5009802;28;20217;-46
2023/12/06 03:16:21;;;;;;;1999.90;999.90;;;;;;;2.09;100.00;94067.94;5005540;28;20212;-47
2023/12/06 03:18:46;;;;;;;1999.90;999.90;;;;;;;2.09;100.00;94059.84;4989308;28;20212;-48
2023/12/06 03:21:11;;;;;;;1999.90;999.90;;;;;;;2.10;100.00;94059.47;5005558;28;20242;-47
2023/12/06 03:23:37;;;;;;;1999.90;999.90;;;;;;;2.09;100.00;94079.47;5005264;28;20212;-49
2023/12/06 03:26:02;;;;;;;1999.90;999.90;;;;;;;2.11;100.00;94066.41;4989157;28;20215;-50
2023/12/06 03:28:28;;;;;;;1999.90;999.90;;;;;;;2.08;100.00;94072.53;5005358;28;20192;-48
2023/12/06 03:30:53;;;;;;;1999.90;999.90;;;;;;;2.09;100.00;94073.31;5005349;28;20204;-47
2023/12/06 03:33:18;;;;;;;1999.90;999.90;;;;;;;2.17;100.00;94069.47;4989202;28;20213;-47
2023/12/06 03:35:44;;;;;;;1999.90;999.90;;;;;;;2.15;100.00;94072.56;5005282;28;20239;-53
2023/12/06 03:38:10;;;;;;;1999.90;999.90;;;;;;;2.13;100.00;94074.88;5005372;28;20219;-48
2023/12/06 03:40:35;;;;;;;1999.90;999.90;;;;;;;2.13;100.00;94077.56;4988812;28;20196;-50
2023/12/06 03:43:01;;;;;;;1999.90;999.90;;;;;;;2.14;100.00;94078.31;5005070;28;20216;-50
2023/12/06 03:45:26;;;;;;;1999.90;999.90;;;;;;;2.15;100.00;94077.94;4989131;28;20195;-46
2023/12/06 03:47:51;;;;;;;1999.90;999.90;;;;;;;2.15;100.00;94071.81;5009408;28;20253;-51
2023/12/06 03:50:17;;;;;;;1999.90;999.90;;;;;;;2.14;100.00;94071.03;5009394;28;20359;-48
2023/12/06 03:52:42;;;;;;;1999.90;999.90;;;;;;;2.15;100.00;94075.25;5008845;28;20266;-49
2023/12/06 03:55:08;;;;;;;1999.90;999.90;;;;;;;2.14;100.00;94078.31;5008962;28;20190;-47
2023/12/06 03:57:33;;;;;;;1999.90;999.90;;;;;;;2.13;100.00;94074.09;5008654;28;20191;-50
2023/12/06 03:59:58;;;;;;;1999.90;999.90;;;;;;;2.12;100.00;94072.56;5008872;28;20202;-51
2023/12/06 04:02:24;;;;;;;1999.90;999.90;;;;;;;2.14;100.00;94076.41;5008920;28;20191;-51
2023/12/06 04:04:49;;;;;;;1999.90;999.90;;;;;;;2.11;100.00;94077.16;5008590;28;20206;-49
2023/12/06 04:07:15;;;;;;;1999.90;999.90;;;;;;;2.12;100.00;94067.19;5008606;28;20218;-52
2023/12/06 04:09:41;;;;;;;1999.90;999.90;;;;;;;2.15;100.00;94071.81;5008398;28;20183;-53
2023/12/06 04:12:07;;;;;;;1999.90;999.90;;;;;;;2.16;100.00;94070.63;5009162;28;20230;-49
2023/12/06 04:14:33;;;;;;;1999.90;999.90;;;;;;;2.11;100.00;94069.09;5008846;28;20215;-50
2023/12/06 04:16:58;;;;;;;1999.90;999.90;;;;;;;2.09;100.00;94060.63;5008728;28;20214;-54
2023/12/06 04:19:23;;;;;;;1999.90;999.90;;;;;;;2.09;100.00;94063.31;5008511;28;20223;-53
2023/12/06 04:21:50;;;;;;;1999.90;999.90;;;;;;;2.06;100.00;94069.47;5008328;28;20198;-54
2023/12/06 04:24:15;;;;;;;1999.90;999.90;;;;;;;2.08;100.00;94069.84;5008137;28;20206;-54
2023/12/06 04:26:40;;;;;;;1999.90;999.90;;;;;;;2.05;100.00;94067.94;5008382;28;20194;-54
2023/12/06 04:29:05;;;;;;;1999.90;999.90;;;;;;;2.06;100.00;94074.84;5008505;28;20262;-55
2023/12/06 04:31:31;;;;;;;1999.90;999.90;;;;;;;2.06;100.00;94079.47;5008165;28;20187;-54
2023/12/06 04:33:56;;;;;;;1999.90;999.90;;;;;;;2.04;100.00;94082.53;5008275;28;20194;-54
2023/12/06 04:36:22;;;;;;;1999.90;999.90;;;;;;;2.06;100.00;94080.25;5008359;28;20179;-53
2023/12/06 04:38:47;;;;;;;1999.90;999.90;;;;;;;2.05;100.00;94081.41;5008220;28;20191;-48
2023/12/06 04:41:13;;;;;;;1999.90;999.90;;;;;;;2.07;100.00;94087.16;5007866;28;20257;-53
2023/12/06 04:43:38;;;;;;;1999.90;999.90;;;;;;;2.06;100.00;94087.53;5007887;28;20183;-53
2023/12/06 04:46:03;;;;;;;1999.90;999.90;;;;;;;2.06;100.00;94085.63;5008393;28;20214;-52
2023/12/06 04:48:29;;;;;;;1999.90;999.90;;;;;;;2.04;100.00;94084.47;5008339;28;20191;-52
2023/12/06 04:50:54;;;;;;;1999.90;999.90;;;;;;;2.04;100.00;94085.22;5007496;28;20191;-53
2023/12/06 04:53:19;;;;;;;1999.90;999.90;;;;;;;2.05;100.00;94086.00;5008037;28;20191;-51
2023/12/06 04:55:45;;;;;;;1999.90;999.90;;;;;;;2.05;100.00;94094.84;5007652;28;20272;-53
2023/12/06 04:58:11;;;;;;;1999.90;999.90;;;;;;;2.06;100.00;94098.31;5007702;28;20198;-53
2023/12/06 05:00:36;;;;;;;1999.90;999.90;;;;;;;2.05;100.00;94094.84;5007843;28;20190;-54
2023/12/06 05:03:02;;;;;;;1999.90;999.90;;;;;;;2.03;100.00;94097.16;5007956;28;20206;-52
2023/12/06 05:05:28;;;;;;;1999.90;999.90;;;;;;;2.03;100.00;94097.16;5008195;28;20203;-52
2023/12/06 05:07:55;;;;;;;1999.90;999.90;;;;;;;2.04;100.00;94104.06;5007515;28;20215;-53
2023/12/06 05:10:22;;;;;;;1999.90;999.90;;;;;;;2.02;100.00;94098.31;5008355;28;20222;-56
2023/12/06 05:12:48;;;;;;;1999.90;999.90;;;;;;;2.03;100.00;94096.38;5007544;28;20222;-51
2023/12/06 05:15:13;;;;;;;1999.90;999.90;;;;;;;2.00;100.00;94100.59;5008015;28;20273;-50
2023/12/06 05:17:39;;;;;;;1999.90;999.90;;;;;;;2.02;100.00;94095.63;5007945;28;20278;-54
2023/12/06 05:20:06;;;;;;;1999.90;999.90;;;;;;;2.01;100.00;94099.44;5008045;28;20206;-52
2023/12/06 05:22:31;;;;;;;1999.90;999.90;;;;;;;2.00;100.00;94097.16;5008007;28;20203;-53
2023/12/06 05:24:57;;;;;;;1999.90;999.90;;;;;;;2.00;100.00;94097.91;5007263;28;20273;-52
2023/12/06 05:27:22;;;;;;;1999.90;999.90;;;;;;;2.06;100.00;94091.00;5007393;28;20199;-52
2023/12/06 05:29:47;;;;;;;1999.90;999.90;;;;;;;2.06;100.00;94093.69;5007477;28;20203;-52
2023/12/06 05:32:13;;;;;;;1999.90;999.90;;;;;;;2.06;100.00;94091.00;5007478;28;20199;-52
2023/12/06 05:34:38;;;;;;;1999.90;999.90;;;;;;;2.05;100.00;94096.78;5007288;28;20225;-49
2023/12/06 05:37:03;;;;;;;1999.90;999.90;;;;;;;2.07;100.00;94095.22;5007389;28;20198;-48
2023/12/06 05:39:31;;;;;;;1999.90;999.90;;;;;;;2.07;100.00;94097.13;5007513;28;20366;-52
2023/12/06 05:41:56;;;;;;;1999.90;999.90;;;;;;;2.04;100.00;94098.69;5007483;28;20242;-52
2023/12/06 05:44:21;;;;;;;1999.90;999.90;;;;;;;2.05;100.00;94102.94;5007066;28;20202;-52
2023/12/06 05:46:47;;;;;;;1999.90;999.90;;;;;;;2.02;100.00;94101.00;5007623;28;20219;-51
2023/12/06 05:49:12;;;;;;;1999.90;999.90;;;;;;;2.07;100.00;94107.91;5007115;28;20397;-52
2023/12/06 05:51:37;;;;;;;1999.90;999.90;;;;;;;2.07;100.00;94103.31;5007574;28;20199;-52
2023/12/06 05:54:03;;;;;;;1999.90;999.90;;;;;;;2.06;100.00;94104.47;5007724;28;20199;-50
2023/12/06 05:56:28;;;;;;;1999.90;999.90;;;;;;;2.05;100.00;94107.53;5007488;28;20202;-52
2023/12/06 05:58:54;;;;;;;1999.90;999.90;;;;;;;2.06;100.00;94103.69;5006971;28;20206;-50
2023/12/06 06:01:19;;;;;;;1999.90;999.90;;;;;;;2.06;100.00;94101.78;5007544;28;20234;-54
2023/12/06 06:03:44;;;;;;;1999.90;999.90;;;;;;;2.05;100.00;94108.31;5009711;28;20214;-48
2023/12/06 06:06:10;;;;;;;1999.90;999.90;;;;;;;2.03;100.00;94113.28;5010824;28;20293;-53
2023/12/06 06:08:35;;;;;;;1999.90;999.90;;;;;;;2.03;100.00;94101.75;5010703;28;20195;-49
2023/12/06 06:11:02;;;;;;;1999.90;999.90;;;;;;;2.00;100.00;94100.59;5027572;28;20195;-51
2023/12/06 06:13:29;;;;;;;1999.90;999.90;;;;;;;2.03;100.00;94105.22;5011083;28;20215;-52
2023/12/06 06:15:55;;;;;;;1999.90;999.90;;;;;;;2.03;100.00;94107.13;5010972;28;20604;-53
2023/12/06 06:18:21;;;;;;;1999.90;999.90;;;;;;;2.02;100.00;94106.38;5010915;28;20191;-50
2023/12/06 06:20:46;;;;;;;1999.90;999.90;;;;;;;2.01;100.00;94115.59;5011029;28;20199;-51
2023/12/06 06:23:12;;;;;;;1999.90;999.90;;;;;;;2.01;100.00;94109.44;5010654;28;20203;-52
2023/12/06 06:25:37;;;;;;;1999.90;999.90;;;;;;;2.04;100.00;94108.69;5010754;28;20191;-51
2023/12/06 06:28:03;;;;;;;1999.90;999.90;;;;;;;1.97;100.00;94114.81;5010289;28;20214;-52
2023/12/06 06:30:29;;;;;;;1999.90;999.90;;;;;;;1.93;100.00;94116.72;5010252;28;20245;-50
2023/12/06 06:32:54;;;;;;;1999.90;999.90;;;;;;;1.89;100.00;94118.63;5010300;28;20224;-52
2023/12/06 06:35:19;;;;;;;1999.90;999.90;;;;;;;1.89;100.00;94118.63;5010095;28;20187;-51
2023/12/06 06:37:46;;;;;;;1999.90;999.90;;;;;;;1.97;100.00;94125.56;5010148;28;20225;-53
2023/12/06 06:40:11;;;;;;;1999.90;999.90;;;;;;;1.90;100.00;94122.84;5010185;28;20203;-51
2023/12/06 06:42:37;;;;;;;1999.90;999.90;;;;;;;1.94;100.00;94120.97;5026693;28;20187;-52
2023/12/06 06:45:05;;;;;;;1999.90;999.90;;;;;;;1.92;100.00;94128.63;5010159;28;20195;-50
2023/12/06 06:47:30;;;;;;;1999.90;999.90;;;;;;;1.86;100.00;94124.75;5010554;28;20204;-53
2023/12/06 06:49:55;;;;;;;1999.90;999.90;;;;;;;1.84;100.00;94135.16;5009898;28;20411;-49
2023/12/06 06:52:21;;;;;;;1999.90;999.90;;;;;;;1.82;100.00;94134.00;5009907;28;20203;-51
2023/12/06 06:54:46;;;;;;;1999.90;999.90;;;;;;;1.79;100.00;94135.50;5010102;28;20206;-55
2023/12/06 06:57:12;;;;;;;1999.90;999.90;;;;;;;1.86;100.00;94135.53;5009805;28;20191;-56
2023/12/06 06:59:38;;;;;;;1999.90;999.90;;;;;;;1.87;100.00;94134.41;5009673;28;20229;-58
2023/12/06 07:02:04;;;;;;;1999.90;999.90;;;;;;;1.89;100.00;94134.78;5009619;28;20202;-55
2023/12/06 07:04:31;;;;;;;1999.90;999.90;;;;;;;1.92;100.00;94139.41;5009806;28;20231;-54
2023/12/06 07:06:56;;;;;;;1999.90;999.90;;;;;;;1.93;100.00;94138.25;5009998;28;20207;-54
2023/12/06 07:09:22;;;;;;;1999.90;999.90;;;;;;;1.98;100.00;94137.91;5010053;28;20187;-54
2023/12/06 07:11:47;;;;;;;1999.90;999.90;;;;;;;2.02;100.00;94146.75;5009772;28;20202;-54
2023/12/06 07:14:13;;;;;;;1999.90;999.90;;;;;;;2.05;100.00;94148.69;5008832;28;20187;-55
2023/12/06 07:16:38;;;;;;;1999.90;999.90;;;;;;;2.12;100.00;94147.94;5009754;28;20183;-53
2023/12/06 07:19:04;;;;;;;1999.90;999.90;;;;;;;2.14;100.00;94145.63;5009678;28;20520;-53
2023/12/06 07:21:29;;;;;;;1999.90;999.90;;;;;;;2.16;100.00;94148.72;5009335;28;20198;-54
2023/12/06 07:23:54;;;;;;;1999.90;999.90;;;;;;;2.34;100.00;94149.53;5009539;28;20216;-53
2023/12/06 07:26:20;;;;;;;1999.90;999.90;;;;;;;2.35;100.00;94145.69;5009286;28;20195;-55
2023/12/06 07:28:45;;;;;;;1999.90;999.90;;;;;;;2.33;100.00;94143.38;5009064;28;20365;-53
2023/12/06 07:31:11;;;;;;;1999.90;999.90;;;;;;;2.33;100.00;94148.75;5008967;28;20195;-54
2023/12/06 07:33:39;;;;;;;1999.90;999.90;;;;;;;2.37;100.00;94148.78;5009035;28;20399;-54
2023/12/06 07:36:05;;;;;;;1999.90;999.90;;;;;;;2.35;100.00;94146.47;5009058;28;20234;-53
2023/12/06 07:38:30;;;;;;;1999.90;999.90;;;;;;;2.39;100.00;94157.22;5009498;28;20198;-55
2023/12/06 07:40:56;;;;;;;1999.90;999.90;;;;;;;2.40;100.00;94158.75;5009049;28;20187;-54
2023/12/06 07:43:22;;;;;;;1999.90;999.90;;;;;;;2.56;100.00;94145.72;5009069;28;20208;-54
2023/12/06 07:45:48;;;;;;;1999.90;999.90;;;;;;;2.54;100.00;94148.03;5009129;28;20202;-55
2023/12/06 07:48:13;;;;;;;1999.90;999.90;;;;;;;2.55;100.00;94150.34;5009174;28;20187;-53
2023/12/06 07:50:38;;;;;;;1999.90;999.90;;;;;;;2.60;100.00;94174.22;5009221;28;20226;-52
2023/12/06 07:53:04;;;;;;;1999.90;999.90;;;;;;;2.63;100.00;94173.44;5009062;28;20191;-53
2023/12/06 07:55:29;;;;;;;1999.90;999.90;;;;;;;2.72;100.00;94173.06;5009054;28;20266;-54
2023/12/06 07:57:54;;;;;;;1999.90;999.90;;;;;;;2.74;100.00;94157.28;5008748;28;20195;-54
2023/12/06 08:00:22;;;;;;;1999.90;999.90;;;;;;;2.72;100.00;94160.38;5008562;28;20199;-53
2023/12/06 08:02:47;;;;;;;1999.90;999.90;;;;;;;2.69;100.00;94161.13;5008339;28;20274;-53
2023/12/06 08:05:13;;;;;;;1999.90;999.90;;;;;;;2.71;100.00;94158.84;5008226;28;20214;-51
2023/12/06 08:07:38;;;;;;;1999.90;999.90;;;;;;;2.68;100.00;94154.22;5008942;28;20194;-51
2023/12/06 08:10:10;;;;;;;1999.90;999.90;;;;;;;2.70;100.00;94138.41;5008823;28;20219;-51
2023/12/06 08:12:37;;;;;;;1999.90;999.90;;;;;;;2.71;100.00;94139.97;5008492;28;20206;-53
2023/12/06 08:15:06;;;;;;;1999.90;999.90;;;;;;;2.79;100.00;94121.88;5008254;28;20187;-55
2023/12/06 08:17:32;;;;;;;1999.90;999.90;;;;;;;2.78;100.00;94115.72;5025291;28;20202;-51
2023/12/06 08:19:57;;;;;;;1999.90;999.90;;;;;;;2.78;100.00;94110.34;5008847;28;20191;-50
2023/12/06 08:22:22;;;;;;;1999.90;999.90;;;;;;;2.82;100.00;94088.75;5008201;28;20266;-52
2023/12/06 08:24:48;;;;;;;1999.90;999.90;;;;;;;2.88;100.00;94071.81;5008869;28;20202;-51
2023/12/06 08:27:14;;;;;;;1999.90;999.90;;;;;;;2.96;100.00;94051.78;5008077;28;20249;-52
2023/12/06 08:29:40;;;;;;;1999.90;999.90;;;;;;;3.00;100.00;94038.31;5008173;28;20193;-53
2023/12/06 08:32:06;;;;;;;1999.90;999.90;;;;;;;2.94;100.00;94016.38;5008591;28;20195;-52
2023/12/06 08:34:31;;;;;;;1999.90;999.90;;;;;;;2.94;100.00;94000.19;5007971;28;20261;-52
2023/12/06 08:36:56;;;;;;;1999.90;999.90;;;;;;;2.98;100.00;94006.34;5007982;28;20269;-49
2023/12/06 08:39:22;;;;;;;1999.90;999.90;;;;;;;3.07;100.00;93998.59;5008111;28;20240;-53
2023/12/06 08:41:47;;;;;;;1999.90;999.90;;;;;;;3.11;100.00;93977.81;5007930;28;20199;-53
2023/12/06 08:44:12;;;;;;;1999.90;999.90;;;;;;;3.14;100.00;93979.72;5008139;28;20206;-53
2023/12/06 08:46:38;;;;;;;1999.90;999.90;;;;;;;3.15;100.00;93957.00;5008467;28;20219;-54
2023/12/06 08:49:03;;;;;;;1999.90;999.90;;;;;;;3.19;100.00;93960.44;5008388;28;20213;-53
2023/12/06 08:51:28;;;;;;;1999.90;999.90;;;;;;;3.23;100.00;93953.09;5007837;28;20192;-50
2023/12/06 08:53:54;;;;;;;1999.90;999.90;;;;;;;3.25;100.00;93950.78;5007806;28;20196;-54
2023/12/06 08:56:19;;;;;;;1999.90;999.90;;;;;;;3.20;100.00;93953.88;5007696;28;20196;-55
2023/12/06 08:58:44;;;;;;;1999.90;999.90;;;;;;;3.27;100.00;93964.66;5008047;28;20199;-52
2023/12/06 09:01:10;;;;;;;1999.90;999.90;;;;;;;3.23;100.00;93963.13;5008064;28;20187;-52
2023/12/06 09:03:35;;;;;;;1999.90;999.90;;;;;;;3.23;100.00;93969.28;5007977;28;20243;-55
2023/12/06 09:06:00;;;;;;;1999.90;999.90;;;;;;;3.26;100.00;93987.38;5007812;28;20230;-54
2023/12/06 09:08:26;;;;;;;1999.90;999.90;;;;;;;3.31;100.00;93996.97;5007719;28;20191;-50
2023/12/06 09:10:52;;;;;;;1999.90;999.90;;;;;;;3.31;100.00;94003.16;5007565;28;20241;-51
2023/12/06 09:13:18;;;;;;;1999.90;999.90;;;;;;;3.33;100.00;94016.25;5007516;28;20220;-53
2023/12/06 09:15:43;;;;;;;1999.90;999.90;;;;;;;3.41;100.00;94028.56;5007392;28;20191;-52
2023/12/06 09:18:08;;;;;;;1999.90;999.90;;;;;;;3.50;100.00;94037.75;5007124;28;20176;-51
2023/12/06 09:20:34;;;;;;;1999.90;999.90;;;;;;;3.54;100.00;94065.50;5007853;28;20195;-53
2023/12/06 09:22:59;;;;;;;1999.90;999.90;;;;;;;3.58;100.00;94072.81;5007866;28;20187;-54
2023/12/06 09:25:24;;;;;;;1999.90;999.90;;;;;;;3.66;100.00;94082.41;5007426;28;20221;-53
2023/12/06 09:27:50;;;;;;;1999.90;999.90;;;;;;;3.66;100.00;94099.41;5007532;28;20191;-51
2023/12/06 09:30:16;;;;;;;1999.90;999.90;;;;;;;3.73;100.00;94112.09;5007249;28;20266;-52
2023/12/06 09:32:41;;;;;;;1999.90;999.90;;;;;;;3.79;100.00;94107.84;5007398;28;20199;-54
2023/12/06 09:35:08;;;;;;;1999.90;999.90;;;;;;;3.71;100.00;94128.66;5007470;28;20223;-53
2023/12/06 09:37:34;;;;;;;1999.90;999.90;;;;;;;3.81;100.00;94148.69;5008292;28;20194;-54
2023/12/06 09:39:59;;;;;;;1999.90;999.90;;;;;;;3.77;100.00;94169.53;5011083;28;20188;-62
2023/12/06 09:42:27;;;;;;;1999.90;999.90;;;;;;;3.81;100.00;94213.47;5011723;28;20183;-62
2023/12/06 09:44:55;;;;;;;1999.90;999.90;;;;;;;3.75;100.00;94263.63;5027672;28;20231;-60
2023/12/06 09:47:23;;;;;;;1999.90;999.90;;;;;;;3.82;100.00;94302.19;5010991;28;20195;-61
2023/12/06 09:49:48;;;;;;;1999.90;999.90;;;;;;;3.82;100.00;94339.97;5011101;28;20298;-60
2023/12/06 09:52:19;;;;;;;1999.90;999.90;;;;;;;3.91;100.00;94380.09;5011522;28;20218;-61
2023/12/06 09:54:46;;;;;;;1999.90;999.90;;;;;;;3.87;100.00;94417.13;5027648;28;20190;-61
2023/12/06 09:57:12;;;;;;;1999.90;999.90;;;;;;;3.89;100.00;94453.38;5010948;28;20220;-60
2023/12/06 09:59:38;;;;;;;1999.90;999.90;;;;;;;3.93;100.00;94485.81;5011194;28;20197;-61
2023/12/06 10:02:03;;;;;;;1999.90;999.90;;;;;;;3.84;100.00;94515.09;5011259;28;20194;-62
2023/12/06 10:04:29;;;;;;;1999.90;999.90;;;;;;;3.91;100.00;94539.41;5010673;28;20204;-61
2023/12/06 10:06:54;;;;;;;1999.90;999.90;;;;;;;3.95;100.00;94553.69;5010966;28;20235;-60
2023/12/06 10:09:20;;;;;;;1999.90;999.90;;;;;;;3.99;100.00;94570.66;5010903;28;20190;-60
2023/12/06 10:11:47;;;;;;;1999.90;999.90;;;;;;;4.19;100.00;94598.91;5011265;28;20210;-60
2023/12/06 10:14:20;;;;;;;1999.90;999.90;;;;;;;4.15;100.00;94622.44;5010298;28;20372;-60
2023/12/06 10:16:49;;;;;;;1999.90;999.90;;;;;;;4.27;100.00;94635.59;5027242;28;20186;-60
2023/12/06 10:19:19;;;;;;;1999.90;999.90;;;;;;;4.48;100.00;94657.28;5010993;28;20192;-60
2023/12/06 10:21:47;;;;;;;1999.90;999.90;;;;;;;4.91;100.00;94680.53;5011012;28;20200;-60
2023/12/06 10:24:12;;;;;;;1999.90;999.90;;;;;;;5.21;100.00;94726.97;5010455;28;20225;-59
2023/12/06 10:26:38;;;;;;;1999.90;999.90;;;;;;;5.45;100.00;94751.34;5010359;28;20194;-60
2023/12/06 10:29:04;;;;;;;1999.90;999.90;;;;;;;5.91;100.00;94792.00;5010424;28;20214;-61
2023/12/06 10:31:42;;;;;;;1999.90;999.90;;;;;;;6.14;100.00;94827.59;5010409;28;20189;-65
2023/12/06 10:34:10;;;;;;;1999.90;999.90;;;;;;;5.89;100.00;94854.72;5011130;28;20201;-64
2023/12/06 10:36:37;;;;;;;1999.90;999.90;;;;;;;5.94;100.00;94877.94;5026882;28;20194;-62
2023/12/06 10:39:06;;;;;;;1999.90;999.90;;;;;;;5.94;100.00;94889.53;5010630;28;20214;-65
2023/12/06 10:41:32;;;;;;;1999.90;999.90;;;;;;;5.99;100.00;94913.56;5010670;28;20167;-64
2023/12/06 10:44:01;;;;;;;1999.90;999.90;;;;;;;6.07;100.00;94900.78;5009956;28;20236;-63
2023/12/06 10:46:27;;;;;;;1999.90;999.90;;;;;;;6.29;100.00;94905.03;5010388;28;20211;-63
2023/12/06 10:48:54;;;;;;;1999.90;999.90;;;;;;;6.31;100.00;94914.34;5008971;28;20237;-64